Mc Callsburg, Iowa
Current Conditions -  °F | °C
As of 6:53 PM on Friday 28 Nov 2014 (Local Time) from KAMW Reporting Station
Clear Clear  
Wind Chill: 22°   Ceiling: Unl
Heat Index: 28°   Visibility: 8mi
Dew Point: 24°   Wind: 6mph
Humidity: 85%   Direction: 120°ESE
Pressure: 29.74"   Gusts: NA
Location:  42.1646°N, 93.4047°W
Report Text: KAMW 290053Z AUTO 12005KT 8SM CLR M02/M04 A2974 RMK AO2 SLP081 T10221044
Loading
Personal Weather Stations






























Interactive Weather Map New forecast layout! Learn more

10-Day Weather Forecast

Advertisements
Track Severe Weather on mobile